Time;durP1;ratioP1;P1;durP2;ratioP2;P2;SDS_P1;SDS_P2;PMS_P1;PMS_P2;Temp;Humidity;BMP_temperature;BMP_pressure;BME280_temperature;BME280_humidity;BME280_pressure;Samples;Min_cycle;Max_cycle;Signal;HPM_P1;HPM_P2
2022/12/18 00:00:14;;;;;;;;;;;;;;;26.24;30.77;101394.25;5013161;28;1072;-24
2022/12/18 00:02:40;;;;;;;;;;;;;;;26.28;30.73;101400.19;5018908;28;997;-25
2022/12/18 00:05:05;;;;;;;;;;;;;;;26.19;30.67;101399.31;5018617;28;1110;-23
2022/12/18 00:07:31;;;;;;;;;;;;;;;26.17;30.94;101407.53;5018499;28;941;-24
2022/12/18 00:09:56;;;;;;;;;;;;;;;26.13;30.88;101408.03;5018785;28;1005;-23
2022/12/18 00:12:21;;;;;;;;;;;;;;;26.19;30.93;101418.19;5011800;28;1040;-24
2022/12/18 00:14:46;;;;;;;;;;;;;;;26.09;30.68;101414.75;5011950;28;1018;-24
2022/12/18 00:17:12;;;;;;;;;;;;;;;26.12;30.87;101422.53;5018245;28;1143;-23
2022/12/18 00:19:37;;;;;;;;;;;;;;;26.21;30.57;101416.16;5018795;28;1966;-24
2022/12/18 00:22:02;;;;;;;;;;;;;;;26.15;30.75;101420.38;5012579;28;1080;-23
2022/12/18 00:24:28;;;;;;;;;;;;;;;26.11;30.78;101428.94;4998855;28;1207;-24
2022/12/18 00:26:53;;;;;;;;;;;;;;;26.16;30.70;101435.53;5017724;28;1077;-23
2022/12/18 00:29:18;;;;;;;;;;;;;;;26.21;30.50;101435.03;5018600;28;2658;-24
2022/12/18 00:31:43;;;;;;;;;;;;;;;26.17;30.65;101433.69;5018490;28;1072;-25
2022/12/18 00:34:12;;;;;;;;;;;;;;;26.21;30.22;101445.81;5018259;28;1040;-24
2022/12/18 00:36:37;;;;;;;;;;;;;;;26.28;30.28;101448.72;5017678;28;1076;-24
2022/12/18 00:39:03;;;;;;;;;;;;;;;26.19;30.43;101447.00;5018204;28;1903;-25
2022/12/18 00:44:13;;;;;;;;;;;;;;;26.13;30.53;101445.78;5017656;28;1084;-24
2022/12/18 00:46:38;;;;;;;;;;;;;;;26.11;30.47;101454.03;5018177;28;1268;-23
2022/12/18 00:49:04;;;;;;;;;;;;;;;25.77;31.08;101446.72;5015435;28;1096;-24
2022/12/18 00:51:29;;;;;;;;;;;;;;;25.69;31.22;101463.69;4998416;28;1198;-24
2022/12/18 00:53:54;;;;;;;;;;;;;;;25.79;30.75;101452.81;5013220;28;1135;-23
2022/12/18 00:56:23;;;;;;;;;;;;;;;25.74;31.06;101455.97;5017875;28;1032;-22
2022/12/18 00:58:48;;;;;;;;;;;;;;;25.63;31.00;101462.47;5007863;28;2427;-24
2022/12/18 01:01:13;;;;;;;;;;;;;;;25.89;30.68;101461.63;5018345;28;1081;-24
2022/12/18 01:03:39;;;;;;;;;;;;;;;25.76;31.14;101450.41;5016788;28;1176;-23
2022/12/18 01:06:07;;;;;;;;;;;;;;;25.87;30.72;101455.56;5017785;28;1008;-26
2022/12/18 01:08:33;;;;;;;;;;;;;;;25.85;30.70;101452.19;5016851;28;1049;-25
2022/12/18 01:10:58;;;;;;;;;;;;;;;25.94;30.60;101455.78;5017630;28;1079;-23
2022/12/18 01:13:23;;;;;;;;;;;;;;;26.07;30.30;101465.31;5002159;28;1083;-24
2022/12/18 01:15:49;;;;;;;;;;;;;;;26.01;30.64;101464.94;4997873;28;866;-24
2022/12/18 01:18:14;;;;;;;;;;;;;;;25.99;30.51;101469.63;5012608;28;1969;-25
2022/12/18 01:20:39;;;;;;;;;;;;;;;26.08;30.05;101473.22;5017623;28;1064;-23
2022/12/18 01:23:05;;;;;;;;;;;;;;;26.06;30.44;101480.63;5017202;28;1016;-25
2022/12/18 01:25:30;;;;;;;;;;;;;;;25.99;30.68;101476.88;5010107;28;1048;-24
2022/12/18 01:27:55;;;;;;;;;;;;;;;26.06;30.14;101475.22;5001417;28;2406;-25
2022/12/18 01:30:20;;;;;;;;;;;;;;;26.02;30.44;101466.63;5017500;28;1020;-23
2022/12/18 01:32:46;;;;;;;;;;;;;;;26.03;30.45;101475.53;5017474;28;1009;-25
2022/12/18 01:35:11;;;;;;;;;;;;;;;26.10;30.41;101473.06;5016624;28;1112;-23
2022/12/18 01:37:36;;;;;;;;;;;;;;;26.07;30.54;101465.31;5003554;28;1955;-24
2022/12/18 01:40:02;;;;;;;;;;;;;;;26.11;30.43;101464.00;5016746;28;986;-24
2022/12/18 01:42:27;;;;;;;;;;;;;;;26.04;30.32;101471.88;5016823;28;1036;-24
2022/12/18 01:45:01;;;;;;;;;;;;;;;26.10;30.37;101473.06;5017540;28;1025;-24
2022/12/18 01:47:33;;;;;;;;;;;;;;;26.03;30.36;101475.53;5017289;28;1234;-24
2022/12/18 01:49:59;;;;;;;;;;;;;;;26.09;30.25;101487.56;5017019;28;1033;-23
2022/12/18 01:52:25;;;;;;;;;;;;;;;26.00;30.27;101495.59;5006134;28;1247;-23
2022/12/18 01:54:51;;;;;;;;;;;;;;;26.01;30.63;101504.50;5005357;28;1120;-25
2022/12/18 01:57:16;;;;;;;;;;;;;;;26.03;30.36;101500.66;5015822;28;1163;-24
2022/12/18 01:59:41;;;;;;;;;;;;;;;26.00;30.57;101494.75;4997605;28;2492;-24
2022/12/18 02:02:07;;;;;;;;;;;;;;;26.14;30.13;101499.56;4995870;28;1078;-23
2022/12/18 02:04:32;;;;;;;;;;;;;;;26.19;30.07;101487.47;4996985;28;889;-24
2022/12/18 02:07:04;;;;;;;;;;;;;;;26.08;30.32;101488.56;5012504;28;1112;-25
2022/12/18 02:09:34;;;;;;;;;;;;;;;25.95;30.57;101494.34;5015349;28;981;-23
2022/12/18 02:12:26;;;;;;;;;;;;;;;26.07;30.27;101490.41;4998781;28;1068;-24
2022/12/18 02:14:54;;;;;;;;;;;;;;;26.07;30.69;101490.41;4994537;28;1085;-25
2022/12/18 02:17:23;;;;;;;;;;;;;;;25.86;30.60;101498.88;5016144;28;1384;-25
2022/12/18 02:19:48;;;;;;;;;;;;;;;25.55;31.32;101508.16;5001958;28;1981;-23
2022/12/18 02:22:20;;;;;;;;;;;;;;;25.64;31.04;101503.72;5015974;28;1211;-23
2022/12/18 02:24:51;;;;;;;;;;;;;;;25.62;30.96;101503.00;5014592;28;1029;-24
2022/12/18 02:27:16;;;;;;;;;;;;;;;25.48;31.01;101507.06;5017952;28;1012;-24
2022/12/18 02:29:44;;;;;;;;;;;;;;;25.64;30.70;101512.63;4997353;28;1863;-23
2022/12/18 02:32:10;;;;;;;;;;;;;;;25.62;30.82;101516.47;5016154;28;1168;-26
2022/12/18 02:34:37;;;;;;;;;;;;;;;25.59;30.94;101531.06;5014861;28;1117;-23
2022/12/18 02:37:02;;;;;;;;;;;;;;;25.52;30.79;101535.41;5015611;28;1104;-23
2022/12/18 02:39:28;;;;;;;;;;;;;;;25.63;30.56;101537.91;5016077;28;1957;-23
2022/12/18 02:41:53;;;;;;;;;;;;;;;25.68;30.64;101554.47;5016537;28;1175;-23
2022/12/18 02:44:19;;;;;;;;;;;;;;;25.64;30.57;101554.91;4999866;28;1051;-22
2022/12/18 02:46:45;;;;;;;;;;;;;;;25.60;30.77;101558.88;4996717;28;1458;-23
2022/12/18 02:49:25;;;;;;;;;;;;;;;25.74;30.41;101574.53;4996888;28;1136;-24
2022/12/18 02:51:53;;;;;;;;;;;;;;;25.73;30.37;101562.06;5008391;28;1054;-26
2022/12/18 02:54:23;;;;;;;;;;;;;;;25.89;30.26;101571.31;5009295;28;1087;-26
2022/12/18 02:56:50;;;;;;;;;;;;;;;25.97;30.34;101573.22;4995471;28;1093;-24
2022/12/18 02:59:30;;;;;;;;;;;;;;;26.02;30.43;101563.69;5001978;28;2399;-25
2022/12/18 03:01:56;;;;;;;;;;;;;;;25.98;30.10;101577.59;5014568;28;1118;-25
2022/12/18 03:04:33;;;;;;;;;;;;;;;25.95;30.46;101577.91;5015177;28;1068;-26
2022/12/18 03:07:02;;;;;;;;;;;;;;;26.06;30.24;101583.06;5014687;28;1129;-23
2022/12/18 03:09:30;;;;;;;;;;;;;;;26.13;30.40;101581.47;5015187;28;1151;-23
2022/12/18 03:14:40;;;;;;;;;;;;;;;25.98;30.86;101577.59;5002214;28;1017;-24
2022/12/18 03:17:05;;;;;;;;;;;;;;;26.08;30.60;101570.28;5002620;28;1130;-24
2022/12/18 03:19:31;;;;;;;;;;;;;;;25.96;30.96;101566.97;5014494;28;1967;-23
2022/12/18 03:21:57;;;;;;;;;;;;;;;25.93;31.33;101564.59;5015332;28;1093;-25
2022/12/18 03:24:22;;;;;;;;;;;;;;;26.09;31.32;101563.06;5013970;28;1022;-23
2022/12/18 03:26:50;;;;;;;;;;;;;;;26.07;31.02;101563.22;5018825;28;1025;-23
2022/12/18 03:29:20;;;;;;;;;;;;;;;26.22;30.94;101566.19;5004107;28;2639;-23
2022/12/18 03:31:47;;;;;;;;;;;;;;;26.00;31.34;101568.38;5012199;28;1021;-23
2022/12/18 03:34:13;;;;;;;;;;;;;;;26.15;31.71;101578.59;5010569;28;1089;-24
2022/12/18 03:36:39;;;;;;;;;;;;;;;26.26;31.43;101572.97;5017901;28;1051;-24
2022/12/18 03:39:04;;;;;;;;;;;;;;;26.16;31.35;101569.50;5019505;28;1898;-23
2022/12/18 03:41:29;;;;;;;;;;;;;;;26.17;31.72;101563.94;5005851;28;1169;-25
2022/12/18 03:43:57;;;;;;;;;;;;;;;26.18;32.06;101570.19;5019676;28;1128;-24
2022/12/18 03:46:30;;;;;;;;;;;;;;;26.16;32.20;101575.75;5018111;28;1079;-25
2022/12/18 03:48:58;;;;;;;;;;;;;;;26.08;32.51;101575.69;5017889;28;1008;-24
2022/12/18 03:51:25;;;;;;;;;;;;;;;26.09;32.35;101566.56;5019419;28;1088;-23
2022/12/18 03:53:52;;;;;;;;;;;;;;;26.13;32.51;101570.69;5015747;28;889;-25
2022/12/18 03:56:17;;;;;;;;;;;;;;;26.22;32.55;101582.38;5007015;28;1100;-24
2022/12/18 03:58:43;;;;;;;;;;;;;;;26.33;32.15;101599.31;5008053;28;2299;-24
2022/12/18 04:01:08;;;;;;;;;;;;;;;26.34;32.00;101601.03;5010228;28;1079;-23
2022/12/18 04:03:33;;;;;;;;;;;;;;;26.29;32.37;101604.19;5011770;28;1127;-23
2022/12/18 04:05:59;;;;;;;;;;;;;;;26.28;32.22;101618.66;5009531;28;864;-25
2022/12/18 04:08:24;;;;;;;;;;;;;;;26.21;32.65;101623.00;5018346;28;1154;-23
2022/12/18 04:10:49;;;;;;;;;;;;;;;26.17;32.53;101638.63;5010179;28;1013;-24
2022/12/18 04:13:21;;;;;;;;;;;;;;;26.21;32.78;101645.38;5012894;28;1139;-23
2022/12/18 04:15:46;;;;;;;;;;;;;;;26.26;32.36;101648.47;5019005;28;1084;-25
2022/12/18 04:18:12;;;;;;;;;;;;;;;26.19;33.15;101658.22;5017615;28;1899;-24
2022/12/18 04:20:37;;;;;;;;;;;;;;;25.98;32.97;101661.19;5011347;28;1083;-23
2022/12/18 04:23:02;;;;;;;;;;;;;;;25.83;32.87;101667.09;5013015;28;1024;-23
2022/12/18 04:25:28;;;;;;;;;;;;;;;25.82;32.81;101673.50;5018541;28;1162;-24
2022/12/18 04:27:53;;;;;;;;;;;;;;;25.92;32.41;101678.84;5014606;28;2347;-22
2022/12/18 04:30:18;;;;;;;;;;;;;;;26.04;31.88;101682.16;5018301;28;877;-23
2022/12/18 04:32:43;;;;;;;;;;;;;;;25.91;32.00;101691.44;5004690;28;1095;-23
2022/12/18 04:35:10;;;;;;;;;;;;;;;25.82;32.09;101700.47;4998991;28;1116;-24
2022/12/18 04:37:35;;;;;;;;;;;;;;;25.79;31.84;101700.75;5011428;28;1902;-23
2022/12/18 04:40:01;;;;;;;;;;;;;;;25.58;32.05;101704.50;5018441;28;1072;-23
2022/12/18 04:42:26;;;;;;;;;;;;;;;25.42;32.26;101699.78;5017743;28;1022;-23
2022/12/18 04:44:51;;;;;;;;;;;;;;;25.60;32.28;101707.91;5018375;28;1087;-23
2022/12/18 04:47:16;;;;;;;;;;;;;;;25.45;30.39;101710.25;5017963;28;1114;-20
2022/12/18 04:49:42;;;;;;;;;;;;;;;25.18;29.04;101718.16;4998827;28;1085;-19
2022/12/18 04:52:07;;;;;;;;;;;;;;;25.25;30.89;101709.47;5011591;28;1100;-22
2022/12/18 04:54:32;;;;;;;;;;;;;;;25.43;31.13;101723.00;5014086;28;1470;-22
2022/12/18 04:56:57;;;;;;;;;;;;;;;25.29;31.40;101713.59;5014214;28;1245;-22
2022/12/18 04:59:23;;;;;;;;;;;;;;;25.14;31.55;101707.81;5011488;28;2058;-23
2022/12/18 05:01:48;;;;;;;;;;;;;;;25.28;31.36;101722.63;5011028;28;1555;-22
2022/12/18 05:04:14;;;;;;;;;;;;;;;25.40;31.52;101724.16;5008538;28;1021;-23
2022/12/18 05:06:39;;;;;;;;;;;;;;;25.47;31.25;101732.50;5004441;28;899;-21
2022/12/18 05:09:04;;;;;;;;;;;;;;;25.37;31.72;101737.06;5004653;28;1021;-22
2022/12/18 05:11:30;;;;;;;;;;;;;;;25.52;31.53;101738.31;5017667;28;1024;-22
2022/12/18 05:13:58;;;;;;;;;;;;;;;25.82;30.93;101753.50;5017933;28;1017;-22
2022/12/18 05:16:23;;;;;;;;;;;;;;;25.36;31.53;101754.25;5017143;28;1054;-22
2022/12/18 05:18:48;;;;;;;;;;;;;;;25.61;31.00;101751.88;5004396;28;1971;-22
2022/12/18 05:21:13;;;;;;;;;;;;;;;25.42;31.37;101757.16;5005249;28;1132;-22
2022/12/18 05:23:39;;;;;;;;;;;;;;;25.42;31.37;101777.88;5012939;28;1347;-22
2022/12/18 05:26:04;;;;;;;;;;;;;;;25.50;31.34;101777.16;5017637;28;931;-23
2022/12/18 05:28:30;;;;;;;;;;;;;;;25.48;31.11;101781.81;5011845;28;1928;-22
2022/12/18 05:30:56;;;;;;;;;;;;;;;25.49;31.48;101787.06;5006268;28;1228;-22
2022/12/18 05:33:22;;;;;;;;;;;;;;;25.46;31.49;101791.91;5010773;28;1514;-22
2022/12/18 05:35:54;;;;;;;;;;;;;;;25.29;31.65;101807.84;5002636;28;1188;-23
2022/12/18 05:38:20;;;;;;;;;;;;;;;25.16;31.82;101817.06;5012744;28;1898;-22
2022/12/18 05:40:45;;;;;;;;;;;;;;;25.55;31.20;101828.75;5004360;28;1088;-22
2022/12/18 05:43:11;;;;;;;;;;;;;;;25.84;30.52;101844.00;5016900;28;874;-23
2022/12/18 05:45:37;;;;;;;;;;;;;;;25.93;30.52;101847.66;5017281;28;1040;-22
2022/12/18 05:48:02;;;;;;;;;;;;;;;26.16;29.96;101855.34;5016904;28;1015;-22
2022/12/18 05:50:28;;;;;;;;;;;;;;;26.19;30.04;101868.56;5011627;28;1192;-21
2022/12/18 05:52:53;;;;;;;;;;;;;;;26.16;29.92;101863.44;5009444;28;1242;-21
2022/12/18 05:55:18;;;;;;;;;;;;;;;26.19;29.81;101867.69;5000495;28;974;-21
2022/12/18 05:57:44;;;;;;;;;;;;;;;26.29;29.63;101868.50;5015865;28;2040;-22
2022/12/18 06:00:09;;;;;;;;;;;;;;;26.32;29.76;101870.03;5016631;28;1151;-22
2022/12/18 06:02:35;;;;;;;;;;;;;;;26.19;30.16;101884.75;5003532;28;1057;-22
2022/12/18 06:05:00;;;;;;;;;;;;;;;26.28;29.96;101896.47;5015068;28;1092;-22
2022/12/18 06:07:25;;;;;;;;;;;;;;;26.25;30.27;101897.63;5003348;28;993;-22
2022/12/18 06:09:51;;;;;;;;;;;;;;;26.17;30.31;101911.84;5016470;28;1005;-22
2022/12/18 06:12:16;;;;;;;;;;;;;;;26.34;29.94;101924.72;5014297;28;1009;-22
2022/12/18 06:14:41;;;;;;;;;;;;;;;26.34;30.23;101930.13;4997148;28;1035;-23
2022/12/18 06:17:06;;;;;;;;;;;;;;;26.34;29.93;101938.22;5005709;28;1198;-22
2022/12/18 06:19:32;;;;;;;;;;;;;;;26.40;29.70;101946.56;4997695;28;1911;-22
2022/12/18 06:21:58;;;;;;;;;;;;;;;26.57;29.43;101956.72;5011077;28;1079;-22
2022/12/18 06:24:24;;;;;;;;;;;;;;;26.33;30.16;101961.63;5008687;28;1215;-22
2022/12/18 06:26:49;;;;;;;;;;;;;;;26.37;29.87;101973.00;5002857;28;1081;-21
2022/12/18 06:29:14;;;;;;;;;;;;;;;26.30;30.18;101972.69;5004385;28;2273;-22
2022/12/18 06:31:40;;;;;;;;;;;;;;;26.33;29.97;101990.44;5015633;28;1556;-22
2022/12/18 06:34:05;;;;;;;;;;;;;;;26.49;29.95;101987.97;5012946;28;1043;-23
2022/12/18 06:36:30;;;;;;;;;;;;;;;26.43;29.73;101995.81;5007198;28;1557;-22
2022/12/18 06:38:55;;;;;;;;;;;;;;;26.57;29.71;101998.06;5015435;28;1902;-22
2022/12/18 06:41:21;;;;;;;;;;;;;;;26.48;29.74;102004.31;5014852;28;1187;-22
2022/12/18 06:43:46;;;;;;;;;;;;;;;26.55;29.86;102016.22;5010178;28;1088;-23
2022/12/18 06:46:11;;;;;;;;;;;;;;;26.56;29.75;102027.88;5012149;28;1183;-22
2022/12/18 06:48:37;;;;;;;;;;;;;;;26.49;29.91;102033.84;5003029;28;1219;-22
2022/12/18 06:51:02;;;;;;;;;;;;;;;26.43;29.96;102037.16;5016225;28;1140;-22
2022/12/18 06:53:28;;;;;;;;;;;;;;;26.41;30.06;102028.34;5002910;28;1206;-22
2022/12/18 06:55:59;;;;;;;;;;;;;;;26.51;29.90;102047.19;5016194;28;1128;-21
2022/12/18 06:58:24;;;;;;;;;;;;;;;26.51;29.86;102034.56;5015108;28;1963;-20
2022/12/18 07:00:49;;;;;;;;;;;;;;;26.58;29.79;102061.81;5015774;28;1129;-22
2022/12/18 07:03:15;;;;;;;;;;;;;;;26.56;29.56;102062.97;5016826;28;1176;-24
2022/12/18 07:05:40;;;;;;;;;;;;;;;26.95;29.15;102062.78;5007051;28;951;-22
2022/12/18 07:08:06;;;;;;;;;;;;;;;26.73;29.48;102064.00;5010191;28;1174;-21
2022/12/18 07:10:31;;;;;;;;;;;;;;;26.82;28.92;102057.75;5005590;28;915;-21
2022/12/18 07:12:56;;;;;;;;;;;;;;;26.61;29.17;102063.38;5000370;28;1265;-21
2022/12/18 07:15:22;;;;;;;;;;;;;;;26.62;29.18;102078.56;5004222;28;2256;-22
2022/12/18 07:17:47;;;;;;;;;;;;;;;26.71;29.08;102093.03;5010762;28;1913;-21
2022/12/18 07:20:12;;;;;;;;;;;;;;;26.59;29.18;102101.28;5019056;28;1082;-22
2022/12/18 07:22:38;;;;;;;;;;;;;;;26.51;29.32;102110.13;5009197;28;862;-21
2022/12/18 07:25:03;;;;;;;;;;;;;;;26.52;29.28;102111.84;5015218;28;1076;-21
2022/12/18 07:27:29;;;;;;;;;;;;;;;26.66;28.96;102109.63;5019958;28;1127;-22
2022/12/18 07:29:54;;;;;;;;;;;;;;;26.67;29.00;102099.69;5016333;28;1048;-21
2022/12/18 07:32:20;;;;;;;;;;;;;;;26.75;28.91;102103.38;5019299;28;1443;-22
2022/12/18 07:34:45;;;;;;;;;;;;;;;26.85;28.75;102102.47;5016364;28;1084;-22
2022/12/18 07:37:10;;;;;;;;;;;;;;;26.73;28.95;102113.47;5008409;28;1165;-22
2022/12/18 07:39:35;;;;;;;;;;;;;;;26.71;29.05;102107.34;5016871;28;1973;-22
2022/12/18 07:44:44;;;;;;;;;;;;;;;26.66;29.48;102117.75;5018998;28;1223;-24
2022/12/18 07:47:10;;;;;;;;;;;;;;;26.57;29.11;102122.19;5007470;28;1219;-23
2022/12/18 07:49:35;;;;;;;;;;;;;;;26.67;29.23;102124.84;5012998;28;1113;-21
2022/12/18 07:52:01;;;;;;;;;;;;;;;26.68;29.34;102137.34;5006160;28;1522;-22
2022/12/18 07:54:26;;;;;;;;;;;;;;;26.62;28.94;102129.84;5003460;28;1266;-22
2022/12/18 07:56:52;;;;;;;;;;;;;;;26.57;29.55;102140.22;5017076;28;1360;-22
2022/12/18 07:59:18;;;;;;;;;;;;;;;26.66;28.86;102136.63;5013536;28;1894;-21
2022/12/18 08:01:43;;;;;;;;;;;;;;;26.58;29.47;102131.13;5012514;28;1120;-23
2022/12/18 08:04:08;;;;;;;;;;;;;;;26.51;29.43;102130.84;5013252;28;1159;-21
2022/12/18 08:06:33;;;;;;;;;;;;;;;26.49;29.40;102135.56;5007226;28;1029;-22
2022/12/18 08:08:59;;;;;;;;;;;;;;;26.65;29.08;102141.19;5018871;28;1049;-21
2022/12/18 08:11:25;;;;;;;;;;;;;;;26.73;29.06;102143.16;5016462;28;1567;-21
2022/12/18 08:13:50;;;;;;;;;;;;;;;26.62;29.49;102143.34;5012664;28;1132;-23
2022/12/18 08:16:15;;;;;;;;;;;;;;;26.64;29.55;102154.84;5011912;28;1118;-21
2022/12/18 08:18:41;;;;;;;;;;;;;;;26.61;29.24;102152.44;5017402;28;1985;-22
2022/12/18 08:21:15;;;;;;;;;;;;;;;26.59;29.23;102147.16;5007776;28;1024;-22
2022/12/18 08:23:42;;;;;;;;;;;;;;;26.61;29.55;102153.28;5008566;28;1157;-22
2022/12/18 08:26:07;;;;;;;;;;;;;;;26.80;29.16;102153.38;5013240;28;1100;-21
2022/12/18 08:28:32;;;;;;;;;;;;;;;26.73;29.27;102151.25;5010829;28;1207;-21
2022/12/18 08:30:58;;;;;;;;;;;;;;;26.64;29.38;102155.66;5015111;28;1064;-22
2022/12/18 08:33:23;;;;;;;;;;;;;;;26.63;29.12;102147.72;5004303;28;965;-22
2022/12/18 08:35:48;;;;;;;;;;;;;;;26.58;29.36;102147.31;5013567;28;1123;-22
2022/12/18 08:38:14;;;;;;;;;;;;;;;26.61;29.50;102150.56;5018303;28;1902;-22
2022/12/18 08:40:39;;;;;;;;;;;;;;;26.68;29.61;102148.13;5017787;28;1086;-22
2022/12/18 08:45:48;;;;;;;;;;;;;;;26.57;29.38;102148.31;5000954;28;1031;-21
2022/12/18 08:48:14;;;;;;;;;;;;;;;26.44;29.48;102149.50;5009299;28;1121;-21
2022/12/18 08:50:39;;;;;;;;;;;;;;;26.60;29.48;102153.41;5005150;28;1115;-22
2022/12/18 08:53:04;;;;;;;;;;;;;;;26.59;29.38;102152.56;5007318;28;1084;-22
2022/12/18 08:55:30;;;;;;;;;;;;;;;26.64;29.65;102157.53;4998978;28;1111;-22
2022/12/18 08:57:55;;;;;;;;;;;;;;;26.56;29.23;102152.03;5008892;28;1957;-24
2022/12/18 09:00:20;;;;;;;;;;;;;;;26.70;29.28;102156.94;5017496;28;1072;-22
2022/12/18 09:02:45;;;;;;;;;;;;;;;26.63;29.24;102150.41;5017553;28;1455;-21
2022/12/18 09:05:11;;;;;;;;;;;;;;;26.67;29.33;102154.53;5013577;28;1094;-22
2022/12/18 09:07:36;;;;;;;;;;;;;;;26.56;29.03;102149.31;5015222;28;1133;-21
2022/12/18 09:10:01;;;;;;;;;;;;;;;26.59;29.20;102138.22;5017998;28;1096;-22
2022/12/18 09:12:27;;;;;;;;;;;;;;;26.50;29.10;102137.25;5017278;28;1231;-22
2022/12/18 09:14:52;;;;;;;;;;;;;;;26.60;29.02;102139.91;5014347;28;1086;-22
2022/12/18 09:17:17;;;;;;;;;;;;;;;26.71;28.99;102145.16;5005047;28;1156;-22
2022/12/18 09:19:43;;;;;;;;;;;;;;;26.56;29.13;102136.66;5007241;28;1914;-21
2022/12/18 09:22:09;;;;;;;;;;;;;;;26.55;29.04;102142.19;5008732;28;1193;-22
2022/12/18 09:24:34;;;;;;;;;;;;;;;26.60;29.13;102135.38;5006338;28;1055;-22
2022/12/18 09:27:00;;;;;;;;;;;;;;;26.54;29.21;102135.97;5011161;28;1165;-22
2022/12/18 09:29:25;;;;;;;;;;;;;;;26.57;29.27;102142.91;5010488;28;1220;-22
2022/12/18 09:31:50;;;;;;;;;;;;;;;26.56;29.18;102133.97;5014389;28;1287;-22
2022/12/18 09:34:16;;;;;;;;;;;;;;;26.57;29.18;102137.53;5017252;28;1235;-22
2022/12/18 09:36:41;;;;;;;;;;;;;;;26.50;29.15;102140.81;5016960;28;1110;-21
2022/12/18 09:39:07;;;;;;;;;;;;;;;26.73;28.94;102150.41;4998768;28;1910;-21
2022/12/18 09:41:53;;;;;;;;;;;;;;;26.63;29.05;102143.19;5009782;28;1133;-21
2022/12/18 09:44:19;;;;;;;;;;;;;;;26.48;29.53;102145.50;5000788;28;942;-23
2022/12/18 09:46:45;;;;;;;;;;;;;;;26.54;29.52;102138.69;5012394;28;1037;-22
2022/12/18 09:49:12;;;;;;;;;;;;;;;26.49;29.50;102143.66;5008625;28;1245;-22
2022/12/18 09:51:39;;;;;;;;;;;;;;;26.59;29.24;102140.94;5004425;28;1334;-22
2022/12/18 09:54:11;;;;;;;;;;;;;;;26.61;29.38;102134.38;5009514;28;1236;-22
2022/12/18 09:56:38;;;;;;;;;;;;;;;26.62;28.87;102136.09;5012978;28;1257;-22
2022/12/18 09:59:03;;;;;;;;;;;;;;;26.52;29.34;102125.31;5015598;28;1894;-22
2022/12/18 10:01:29;;;;;;;;;;;;;;;26.72;29.18;102137.91;5014893;28;1252;-21
2022/12/18 10:03:54;;;;;;;;;;;;;;;26.66;29.27;102136.63;5012723;28;1351;-22
2022/12/18 10:06:35;;;;;;;;;;;;;;;26.60;29.20;102113.78;5014544;28;1276;-21
2022/12/18 10:09:04;;;;;;;;;;;;;;;26.51;29.56;102125.44;5013964;28;1343;-21
2022/12/18 10:12:03;;;;;;;;;;;;;;;26.74;29.09;102119.72;5006869;28;1205;-22
2022/12/18 10:14:34;;;;;;;;;;;;;;;26.67;29.30;102126.69;4989193;28;1206;-22
2022/12/18 10:16:59;;;;;;;;;;;;;;;26.55;29.44;102126.88;5012137;28;1216;-22
2022/12/18 10:19:31;;;;;;;;;;;;;;;26.42;29.87;102124.50;4998466;28;1934;-22
2022/12/18 10:22:03;;;;;;;;;;;;;;;26.54;29.58;102119.78;5007076;28;1192;-22
2022/12/18 10:24:49;;;;;;;;;;;;;;;26.60;29.30;102121.03;5012955;28;1287;-22
2022/12/18 10:27:15;;;;;;;;;;;;;;;26.59;29.55;102127.44;5012177;28;1264;-22
2022/12/18 10:29:42;;;;;;;;;;;;;;;26.53;29.72;102128.84;5005996;28;1189;-22
2022/12/18 10:32:07;;;;;;;;;;;;;;;26.57;29.38;102130.28;5004217;28;1148;-22
2022/12/18 10:34:32;;;;;;;;;;;;;;;26.63;29.41;102139.63;5005688;28;938;-22
2022/12/18 10:36:57;;;;;;;;;;;;;;;26.60;29.56;102139.91;5003727;28;1077;-22
2022/12/18 10:39:24;;;;;;;;;;;;;;;26.63;29.43;102145.03;5014790;28;1979;-22
2022/12/18 10:41:50;;;;;;;;;;;;;;;26.56;29.01;102139.34;5004067;28;1195;-22
2022/12/18 10:44:16;;;;;;;;;;;;;;;26.57;29.43;102138.38;5015962;28;1060;-22
2022/12/18 10:46:42;;;;;;;;;;;;;;;26.68;28.81;102149.97;5004216;28;1140;-22
2022/12/18 10:49:07;;;;;;;;;;;;;;;26.55;28.95;102158.41;5011915;28;1252;-22
2022/12/18 10:51:33;;;;;;;;;;;;;;;26.64;28.98;102147.56;5004203;28;1191;-22
2022/12/18 10:54:14;;;;;;;;;;;;;;;26.67;29.30;102154.53;5004563;28;1092;-22
2022/12/18 10:56:40;;;;;;;;;;;;;;;26.53;29.48;102158.53;5013726;28;1208;-22
2022/12/18 10:59:06;;;;;;;;;;;;;;;26.61;29.31;102165.94;5016267;28;1902;-22
2022/12/18 11:01:50;;;;;;;;;;;;;;;26.77;28.96;102168.88;5003077;28;1159;-22
2022/12/18 11:04:19;;;;;;;;;;;;;;;26.48;29.67;102168.91;5002413;28;1099;-22
2022/12/18 11:06:54;;;;;;;;;;;;;;;26.51;29.21;102150.59;5015971;28;1056;-21
2022/12/18 11:09:20;;;;;;;;;;;;;;;26.84;29.26;102168.28;5015286;28;917;-21
2022/12/18 11:11:49;;;;;;;;;;;;;;;26.69;29.51;102182.25;5013408;28;1172;-22
2022/12/18 11:14:24;;;;;;;;;;;;;;;26.58;29.36;102182.38;5015296;28;1106;-21
2022/12/18 11:16:50;;;;;;;;;;;;;;;26.60;29.37;102183.09;5013318;28;1141;-22
2022/12/18 11:19:41;;;;;;;;;;;;;;;26.67;29.04;102183.38;5018027;28;1983;-21
2022/12/18 11:22:20;;;;;;;;;;;;;;;26.66;29.21;102190.63;5008275;28;1258;-22
2022/12/18 11:24:52;;;;;;;;;;;;;;;26.63;29.57;102186.38;5013641;28;929;-22
2022/12/18 11:27:17;;;;;;;;;;;;;;;26.75;29.17;102188.91;4998512;28;1069;-22
2022/12/18 11:29:42;;;;;;;;;;;;;;;26.66;29.28;102193.31;4995090;28;994;-23
2022/12/18 11:32:14;;;;;;;;;;;;;;;26.75;29.14;102191.59;4995621;28;1061;-22
2022/12/18 11:34:39;;;;;;;;;;;;;;;26.73;29.39;102191.75;4996325;28;1009;-21
2022/12/18 11:37:04;;;;;;;;;;;;;;;26.53;29.43;102189.09;5008071;28;1077;-23
2022/12/18 11:39:33;;;;;;;;;;;;;;;26.62;29.13;102190.06;5001093;28;1977;-22
2022/12/18 11:42:11;;;;;;;;;;;;;;;26.66;29.42;102187.91;5009286;28;1251;-22
2022/12/18 11:44:48;;;;;;;;;;;;;;;26.57;29.24;102196.88;5015064;28;1235;-22
2022/12/18 11:47:20;;;;;;;;;;;;;;;26.50;29.58;102188.50;5007651;28;1204;-22
2022/12/18 11:49:46;;;;;;;;;;;;;;;26.57;29.47;102184.25;5017476;28;1473;-21
2022/12/18 11:52:18;;;;;;;;;;;;;;;26.53;29.16;102175.59;5014881;28;1259;-22
2022/12/18 11:54:43;;;;;;;;;;;;;;;26.48;29.58;102179.69;5014413;28;1301;-22
2022/12/18 11:57:08;;;;;;;;;;;;;;;26.58;29.43;102177.84;5009021;28;1298;-21
2022/12/18 11:59:38;;;;;;;;;;;;;;;26.51;29.20;102172.19;5017292;28;2307;-22
2022/12/18 12:02:03;;;;;;;;;;;;;;;26.51;29.39;102174.88;5016522;28;1141;-22
2022/12/18 12:04:47;;;;;;;;;;;;;;;26.52;29.28;102178.44;5018803;28;1232;-22
2022/12/18 12:07:19;;;;;;;;;;;;;;;26.37;29.49;102175.31;5017448;28;1342;-22
2022/12/18 12:09:56;;;;;;;;;;;;;;;26.58;29.15;102190.47;5008868;28;901;-22
2022/12/18 12:12:45;;;;;;;;;;;;;;;26.46;29.05;102187.13;4999564;28;1072;-22
2022/12/18 12:15:30;;;;;;;;;;;;;;;26.53;28.80;102193.63;4999877;28;1105;-22
2022/12/18 12:17:59;;;;;;;;;;;;;;;26.39;29.12;102206.56;5010742;28;1907;-23
2022/12/18 12:20:39;;;;;;;;;;;;;;;26.16;29.72;102209.50;5003586;28;1210;-22
2022/12/18 12:23:06;;;;;;;;;;;;;;;27.59;27.63;102221.44;5013281;28;1041;-21
2022/12/18 12:25:39;;;;;;;;;;;;;;;27.16;27.58;102223.78;5018679;28;1144;-21
2022/12/18 12:28:16;;;;;;;;;;;;;;;27.21;28.00;102229.59;5016703;28;1128;-21
2022/12/18 12:30:45;;;;;;;;;;;;;;;27.54;27.53;102241.84;5000322;28;1137;-21
2022/12/18 12:33:20;;;;;;;;;;;;;;;27.48;27.53;102243.28;5010169;28;1076;-22
2022/12/18 12:35:51;;;;;;;;;;;;;;;27.59;27.74;102237.66;5015890;28;1424;-21
2022/12/18 12:38:19;;;;;;;;;;;;;;;28.04;27.02;102234.31;5004120;28;1890;-22
2022/12/18 12:40:47;;;;;;;;;;;;;;;28.37;26.40;102237.38;5006742;28;991;-21
2022/12/18 12:43:16;;;;;;;;;;;;;;;28.51;26.17;102248.66;5018511;28;1047;-22
2022/12/18 12:45:46;;;;;;;;;;;;;;;28.72;25.73;102253.72;5016225;28;1053;-22
2022/12/18 12:48:32;;;;;;;;;;;;;;;28.83;25.63;102261.59;5017341;28;1122;-21
2022/12/18 12:50:58;;;;;;;;;;;;;;;28.95;25.47;102269.47;5009686;28;1115;-22
2022/12/18 12:53:26;;;;;;;;;;;;;;;28.98;25.31;102273.75;5017046;28;1138;-22
2022/12/18 12:55:51;;;;;;;;;;;;;;;28.87;25.30;102274.81;5008453;28;1196;-21
2022/12/18 12:58:17;;;;;;;;;;;;;;;28.81;25.77;102263.59;5016720;28;1895;-22